sensor_id;sensor_type;location;lat;lon;timestamp;pressure;altitude;pressure_sealevel;temperature;humidity
22241;BME280;11289;52.524;13.694;2023-05-20T06:29:46;101973.25;;;12.59;72.31
22241;BME280;11289;52.524;13.694;2023-05-20T06:32:12;101977.91;;;12.64;72.20
22241;BME280;11289;52.524;13.694;2023-05-20T06:34:38;101978.09;;;12.67;72.00
22241;BME280;11289;52.524;13.694;2023-05-20T06:37:04;101966.84;;;12.73;71.75
22241;BME280;11289;52.524;13.694;2023-05-20T06:39:30;101973.13;;;12.78;71.69
22241;BME280;11289;52.524;13.694;2023-05-20T06:41:56;101968.13;;;12.89;71.44
22241;BME280;11289;52.524;13.694;2023-05-20T06:44:22;101965.34;;;12.89;71.38
22241;BME280;11289;52.524;13.694;2023-05-20T06:46:48;101968.53;;;12.96;70.94
22241;BME280;11289;52.524;13.694;2023-05-20T06:49:14;101970.25;;;13.06;71.18
22241;BME280;11289;52.524;13.694;2023-05-20T06:51:40;101964.38;;;13.07;70.99
22241;BME280;11289;52.524;13.694;2023-05-20T06:54:06;101964.75;;;13.15;70.64
22241;BME280;11289;52.524;13.694;2023-05-20T06:56:32;101969.38;;;13.19;70.51
22241;BME280;11289;52.524;13.694;2023-05-20T06:58:58;101968.88;;;13.17;70.24
22241;BME280;11289;52.524;13.694;2023-05-20T07:01:24;101970.88;;;13.26;70.43
22241;BME280;11289;52.524;13.694;2023-05-20T07:03:50;101965.69;;;13.33;70.37
22241;BME280;11289;52.524;13.694;2023-05-20T07:06:16;101959.56;;;13.45;69.74
22241;BME280;11289;52.524;13.694;2023-05-20T07:08:42;101958.50;;;13.54;69.40
22241;BME280;11289;52.524;13.694;2023-05-20T07:11:08;101962.28;;;13.58;69.20
22241;BME280;11289;52.524;13.694;2023-05-20T07:13:34;101965.63;;;13.69;68.57
22241;BME280;11289;52.524;13.694;2023-05-20T07:16:00;101970.31;;;13.83;68.57
22241;BME280;11289;52.524;13.694;2023-05-20T07:18:26;101961.34;;;13.95;68.48
22241;BME280;11289;52.524;13.694;2023-05-20T07:20:53;101968.88;;;13.94;68.39
22241;BME280;11289;52.524;13.694;2023-05-20T07:23:22;101968.63;;;14.04;68.14
22241;BME280;11289;52.524;13.694;2023-05-20T07:25:48;101970.25;;;14.05;67.70
22241;BME280;11289;52.524;13.694;2023-05-20T07:28:15;101951.22;;;14.07;67.57
22241;BME280;11289;52.524;13.694;2023-05-20T07:30:41;101962.75;;;14.15;67.69
22241;BME280;11289;52.524;13.694;2023-05-20T07:33:07;101967.16;;;14.16;67.60
22241;BME280;11289;52.524;13.694;2023-05-20T07:35:33;101970.00;;;14.24;67.23
22241;BME280;11289;52.524;13.694;2023-05-20T07:37:59;101964.06;;;14.17;67.43
22241;BME280;11289;52.524;13.694;2023-05-20T07:40:25;101954.88;;;14.25;67.21
22241;BME280;11289;52.524;13.694;2023-05-20T07:42:51;101949.66;;;14.33;67.34
22241;BME280;11289;52.524;13.694;2023-05-20T07:45:17;101956.41;;;14.40;66.90
22241;BME280;11289;52.524;13.694;2023-05-20T07:47:43;101959.06;;;14.45;66.83
22241;BME280;11289;52.524;13.694;2023-05-20T07:50:09;101951.81;;;14.36;66.62
22241;BME280;11289;52.524;13.694;2023-05-20T07:52:35;101949.53;;;14.47;66.80
22241;BME280;11289;52.524;13.694;2023-05-20T07:55:01;101954.63;;;14.53;66.49
22241;BME280;11289;52.524;13.694;2023-05-20T07:57:28;101946.09;;;14.50;66.65
22241;BME280;11289;52.524;13.694;2023-05-20T07:59:54;101943.31;;;14.58;66.27
22241;BME280;11289;52.524;13.694;2023-05-20T08:02:20;101950.28;;;14.78;66.37
22241;BME280;11289;52.524;13.694;2023-05-20T08:04:46;101942.06;;;15.00;65.93
22241;BME280;11289;52.524;13.694;2023-05-20T08:07:12;101937.44;;;15.04;65.41
22241;BME280;11289;52.524;13.694;2023-05-20T08:09:38;101938.44;;;15.17;64.88
22241;BME280;11289;52.524;13.694;2023-05-20T08:12:04;101940.06;;;15.35;64.98
22241;BME280;11289;52.524;13.694;2023-05-20T08:14:30;101928.50;;;15.54;64.60
22241;BME280;11289;52.524;13.694;2023-05-20T08:16:56;101902.81;;;15.52;63.80
22241;BME280;11289;52.524;13.694;2023-05-20T08:19:22;101921.53;;;15.69;63.22
22241;BME280;11289;52.524;13.694;2023-05-20T08:21:48;101929.78;;;15.83;62.92
22241;BME280;11289;52.524;13.694;2023-05-20T08:24:14;101922.31;;;15.87;62.72
22241;BME280;11289;52.524;13.694;2023-05-20T08:26:40;101928.25;;;15.86;62.88
22241;BME280;11289;52.524;13.694;2023-05-20T08:29:06;101930.41;;;15.80;62.29
22241;BME280;11289;52.524;13.694;2023-05-20T08:31:33;101931.91;;;15.77;62.68
22241;BME280;11289;52.524;13.694;2023-05-20T08:33:58;101927.88;;;15.96;62.77
22241;BME280;11289;52.524;13.694;2023-05-20T08:36:25;101924.72;;;16.06;62.48
22241;BME280;11289;52.524;13.694;2023-05-20T08:38:51;101932.41;;;16.18;61.76
22241;BME280;11289;52.524;13.694;2023-05-20T08:41:17;101936.66;;;16.24;61.34
22241;BME280;11289;52.524;13.694;2023-05-20T08:43:43;101924.69;;;16.15;60.93
22241;BME280;11289;52.524;13.694;2023-05-20T08:46:09;101925.63;;;16.19;61.22
22241;BME280;11289;52.524;13.694;2023-05-20T08:48:36;101919.50;;;16.26;61.20
22241;BME280;11289;52.524;13.694;2023-05-20T08:51:03;101918.81;;;16.29;60.70
22241;BME280;11289;52.524;13.694;2023-05-20T08:53:29;101907.50;;;16.25;60.79
22241;BME280;11289;52.524;13.694;2023-05-20T08:55:59;101906.94;;;16.32;60.78
22241;BME280;11289;52.524;13.694;2023-05-20T08:58:31;101909.56;;;16.37;60.32
22241;BME280;11289;52.524;13.694;2023-05-20T09:00:59;101913.97;;;16.38;60.43
22241;BME280;11289;52.524;13.694;2023-05-20T09:03:26;101911.56;;;16.28;60.26
22241;BME280;11289;52.524;13.694;2023-05-20T09:06:02;101903.66;;;16.30;61.02
22241;BME280;11289;52.524;13.694;2023-05-20T09:08:29;101903.66;;;16.30;60.45
22241;BME280;11289;52.524;13.694;2023-05-20T09:10:55;101904.06;;;16.19;60.93
22241;BME280;11289;52.524;13.694;2023-05-20T09:13:22;101902.97;;;16.33;60.85
22241;BME280;11289;52.524;13.694;2023-05-20T09:15:49;101903.41;;;16.44;60.91
22241;BME280;11289;52.524;13.694;2023-05-20T09:18:15;101898.06;;;16.51;60.82
22241;BME280;11289;52.524;13.694;2023-05-20T09:20:41;101896.22;;;16.55;60.26
22241;BME280;11289;52.524;13.694;2023-05-20T09:23:08;101903.00;;;16.54;59.58
22241;BME280;11289;52.524;13.694;2023-05-20T09:25:35;101911.75;;;16.52;59.75
22241;BME280;11289;52.524;13.694;2023-05-20T09:28:04;101915.72;;;16.51;59.97
22241;BME280;11289;52.524;13.694;2023-05-20T09:30:31;101907.44;;;16.55;60.27
22241;BME280;11289;52.524;13.694;2023-05-20T09:32:58;101907.66;;;16.50;60.34
22241;BME280;11289;52.524;13.694;2023-05-20T09:35:26;101900.47;;;16.40;60.62
22241;BME280;11289;52.524;13.694;2023-05-20T09:37:53;101901.63;;;16.39;60.49
22241;BME280;11289;52.524;13.694;2023-05-20T09:40:22;101893.28;;;16.30;60.71
22241;BME280;11289;52.524;13.694;2023-05-20T09:45:17;101898.19;;;16.33;60.83
22241;BME280;11289;52.524;13.694;2023-05-20T09:47:44;101905.53;;;16.17;61.18
22241;BME280;11289;52.524;13.694;2023-05-20T09:50:11;101899.13;;;16.16;61.23
22241;BME280;11289;52.524;13.694;2023-05-20T09:52:38;101899.72;;;16.31;61.55
22241;BME280;11289;52.524;13.694;2023-05-20T09:55:05;101902.97;;;16.33;61.33
22241;BME280;11289;52.524;13.694;2023-05-20T09:57:35;101901.16;;;16.37;60.68
22241;BME280;11289;52.524;13.694;2023-05-20T10:00:04;101903.63;;;16.39;60.34
22241;BME280;11289;52.524;13.694;2023-05-20T10:02:32;101893.44;;;16.34;60.29
22241;BME280;11289;52.524;13.694;2023-05-20T10:05:15;101895.53;;;16.37;60.76
22241;BME280;11289;52.524;13.694;2023-05-20T10:13:08;101903.69;;;16.72;60.09
22241;BME280;11289;52.524;13.694;2023-05-20T10:16:12;101891.75;;;17.05;60.18
22241;BME280;11289;52.524;13.694;2023-05-20T10:18:54;101895.81;;;17.41;58.14
22241;BME280;11289;52.524;13.694;2023-05-20T10:21:23;101889.84;;;17.43;57.01
22241;BME280;11289;52.524;13.694;2023-05-20T10:23:50;101875.81;;;17.30;57.63
22241;BME280;11289;52.524;13.694;2023-05-20T10:26:17;101874.47;;;17.15;57.83
22241;BME280;11289;52.524;13.694;2023-05-20T10:28:44;101884.22;;;17.30;58.04
22241;BME280;11289;52.524;13.694;2023-05-20T10:31:20;101880.72;;;17.33;57.29
22241;BME280;11289;52.524;13.694;2023-05-20T10:33:46;101880.72;;;17.33;57.42
22241;BME280;11289;52.524;13.694;2023-05-20T10:36:25;101883.28;;;17.26;58.16
22241;BME280;11289;52.524;13.694;2023-05-20T10:38:56;101875.19;;;17.25;58.23
22241;BME280;11289;52.524;13.694;2023-05-20T10:41:24;101876.22;;;17.53;57.95
22241;BME280;11289;52.524;13.694;2023-05-20T10:46:27;101882.31;;;17.68;57.50
22241;BME280;11289;52.524;13.694;2023-05-20T10:48:53;101874.09;;;17.63;56.99
22241;BME280;11289;52.524;13.694;2023-05-20T10:51:19;101883.38;;;17.63;57.19
22241;BME280;11289;52.524;13.694;2023-05-20T10:53:46;101869.44;;;17.67;57.66
22241;BME280;11289;52.524;13.694;2023-05-20T10:56:20;101866.75;;;17.70;56.47
22241;BME280;11289;52.524;13.694;2023-05-20T10:58:46;101872.94;;;17.76;56.52
22241;BME280;11289;52.524;13.694;2023-05-20T11:01:13;101865.72;;;17.75;57.15
22241;BME280;11289;52.524;13.694;2023-05-20T11:03:45;101855.53;;;17.70;57.00
22241;BME280;11289;52.524;13.694;2023-05-20T11:06:14;101858.19;;;17.67;57.52
22241;BME280;11289;52.524;13.694;2023-05-20T11:08:40;101853.97;;;17.73;56.95
22241;BME280;11289;52.524;13.694;2023-05-20T11:11:06;101852.13;;;17.77;56.73
22241;BME280;11289;52.524;13.694;2023-05-20T11:13:32;101848.97;;;17.79;56.75
22241;BME280;11289;52.524;13.694;2023-05-20T11:16:00;101841.59;;;17.86;57.88
22241;BME280;11289;52.524;13.694;2023-05-20T11:18:26;101836.72;;;17.96;56.98
22241;BME280;11289;52.524;13.694;2023-05-20T11:21:00;101842.53;;;18.27;55.86
22241;BME280;11289;52.524;13.694;2023-05-20T11:23:28;101836.06;;;18.39;55.31
22241;BME280;11289;52.524;13.694;2023-05-20T11:25:55;101832.16;;;18.56;55.15
22241;BME280;11289;52.524;13.694;2023-05-20T11:28:25;101840.31;;;18.61;54.61
22241;BME280;11289;52.524;13.694;2023-05-20T11:30:51;101836.16;;;18.84;55.05
22241;BME280;11289;52.524;13.694;2023-05-20T11:33:17;101839.53;;;18.89;53.42
22241;BME280;11289;52.524;13.694;2023-05-20T11:35:48;101837.19;;;18.91;54.20
22241;BME280;11289;52.524;13.694;2023-05-20T11:38:15;101831.81;;;18.86;54.52
22241;BME280;11289;52.524;13.694;2023-05-20T11:40:43;101834.19;;;18.72;54.18
22241;BME280;11289;52.524;13.694;2023-05-20T11:43:11;101830.91;;;18.70;54.95
22241;BME280;11289;52.524;13.694;2023-05-20T11:45:41;101832.53;;;19.11;54.12
22241;BME280;11289;52.524;13.694;2023-05-20T11:48:08;101836.81;;;19.37;53.45
22241;BME280;11289;52.524;13.694;2023-05-20T11:50:36;101830.56;;;19.44;53.65
22241;BME280;11289;52.524;13.694;2023-05-20T11:53:08;101834.47;;;19.87;51.85
22241;BME280;11289;52.524;13.694;2023-05-20T11:55:48;101831.91;;;19.98;50.75
22241;BME280;11289;52.524;13.694;2023-05-20T11:58:18;101830.97;;;20.10;51.33
22241;BME280;11289;52.524;13.694;2023-05-20T12:00:44;101825.06;;;20.15;50.80
22241;BME280;11289;52.524;13.694;2023-05-20T12:03:10;101828.63;;;20.12;51.12
22241;BME280;11289;52.524;13.694;2023-05-20T12:05:37;101828.09;;;19.90;50.96
22241;BME280;11289;52.524;13.694;2023-05-20T12:08:04;101825.59;;;20.21;51.51
22241;BME280;11289;52.524;13.694;2023-05-20T12:10:30;101816.56;;;20.31;50.43
22241;BME280;11289;52.524;13.694;2023-05-20T12:12:56;101821.34;;;20.11;50.70
22241;BME280;11289;52.524;13.694;2023-05-20T12:15:22;101816.59;;;20.15;50.75
22241;BME280;11289;52.524;13.694;2023-05-20T12:17:50;101802.53;;;20.54;51.32
22241;BME280;11289;52.524;13.694;2023-05-20T12:20:19;101808.06;;;20.86;49.77
22241;BME280;11289;52.524;13.694;2023-05-20T12:22:45;101804.66;;;21.00;49.24
22241;BME280;11289;52.524;13.694;2023-05-20T12:25:13;101799.31;;;21.37;47.76
22241;BME280;11289;52.524;13.694;2023-05-20T12:27:41;101792.88;;;21.40;48.31
22241;BME280;11289;52.524;13.694;2023-05-20T12:30:08;101792.97;;;21.44;47.31
22241;BME280;11289;52.524;13.694;2023-05-20T12:32:36;101787.22;;;21.60;47.06
22241;BME280;11289;52.524;13.694;2023-05-20T12:35:02;101772.75;;;21.92;46.79
22241;BME280;11289;52.524;13.694;2023-05-20T12:37:28;101768.31;;;22.21;46.06
22241;BME280;11289;52.524;13.694;2023-05-20T12:39:55;101781.94;;;21.85;46.20
22241;BME280;11289;52.524;13.694;2023-05-20T12:42:21;101776.31;;;21.62;46.52
22241;BME280;11289;52.524;13.694;2023-05-20T12:44:47;101759.94;;;21.71;46.69
22241;BME280;11289;52.524;13.694;2023-05-20T12:47:13;101768.06;;;21.77;46.98
22241;BME280;11289;52.524;13.694;2023-05-20T12:49:39;101766.00;;;22.00;45.94
22241;BME280;11289;52.524;13.694;2023-05-20T12:52:05;101768.19;;;22.41;45.43
22241;BME280;11289;52.524;13.694;2023-05-20T12:54:31;101749.78;;;22.58;45.08
22241;BME280;11289;52.524;13.694;2023-05-20T12:56:58;101760.59;;;22.49;44.50
22241;BME280;11289;52.524;13.694;2023-05-20T12:59:24;101756.81;;;22.37;45.38
22241;BME280;11289;52.524;13.694;2023-05-20T13:01:50;101744.50;;;22.22;45.44
22241;BME280;11289;52.524;13.694;2023-05-20T13:04:16;101744.13;;;22.27;46.18
22241;BME280;11289;52.524;13.694;2023-05-20T13:06:42;101743.63;;;22.49;45.33
22241;BME280;11289;52.524;13.694;2023-05-20T13:09:08;101730.34;;;22.53;44.68
22241;BME280;11289;52.524;13.694;2023-05-20T13:11:34;101738.22;;;22.70;45.07
22241;BME280;11289;52.524;13.694;2023-05-20T13:14:00;101727.00;;;22.81;44.58
22241;BME280;11289;52.524;13.694;2023-05-20T13:16:26;101719.94;;;23.05;44.15
22241;BME280;11289;52.524;13.694;2023-05-20T13:18:52;101715.03;;;22.99;44.35
22241;BME280;11289;52.524;13.694;2023-05-20T13:21:18;101714.50;;;23.27;43.93
22241;BME280;11289;52.524;13.694;2023-05-20T13:23:44;101708.28;;;23.10;43.27
22241;BME280;11289;52.524;13.694;2023-05-20T13:26:10;101702.91;;;23.02;43.93
22241;BME280;11289;52.524;13.694;2023-05-20T13:28:36;101688.94;;;23.20;43.99
22241;BME280;11289;52.524;13.694;2023-05-20T13:31:04;101704.09;;;23.42;43.86
22241;BME280;11289;52.524;13.694;2023-05-20T13:33:31;101691.34;;;23.14;43.49
22241;BME280;11289;52.524;13.694;2023-05-20T13:35:57;101702.00;;;23.35;43.43
22241;BME280;11289;52.524;13.694;2023-05-20T13:38:23;101696.78;;;23.37;42.49
22241;BME280;11289;52.524;13.694;2023-05-20T13:40:49;101697.63;;;23.41;43.29
22241;BME280;11289;52.524;13.694;2023-05-20T13:43:15;101692.06;;;23.56;42.79
22241;BME280;11289;52.524;13.694;2023-05-20T13:45:42;101707.50;;;23.69;42.29
22241;BME280;11289;52.524;13.694;2023-05-20T13:48:08;101681.50;;;23.56;42.87
22241;BME280;11289;52.524;13.694;2023-05-20T13:50:34;101681.16;;;23.65;42.71
22241;BME280;11289;52.524;13.694;2023-05-20T13:53:00;101678.19;;;23.43;43.28
22241;BME280;11289;52.524;13.694;2023-05-20T13:55:26;101682.91;;;23.25;43.17
22241;BME280;11289;52.524;13.694;2023-05-20T13:57:52;101683.41;;;23.34;42.84
22241;BME280;11289;52.524;13.694;2023-05-20T14:00:19;101679.84;;;23.48;43.79
22241;BME280;11289;52.524;13.694;2023-05-20T14:02:45;101692.41;;;23.51;43.52
22241;BME280;11289;52.524;13.694;2023-05-20T14:05:12;101689.03;;;23.30;43.14
22241;BME280;11289;52.524;13.694;2023-05-20T14:07:38;101689.13;;;23.41;43.07
22241;BME280;11289;52.524;13.694;2023-05-20T14:10:05;101677.88;;;23.59;43.61
22241;BME280;11289;52.524;13.694;2023-05-20T14:12:31;101675.94;;;23.71;42.65
22241;BME280;11289;52.524;13.694;2023-05-20T14:14:57;101670.19;;;23.60;43.14
22241;BME280;11289;52.524;13.694;2023-05-20T14:17:23;101667.34;;;23.53;43.23
22241;BME280;11289;52.524;13.694;2023-05-20T14:19:50;101659.16;;;23.40;43.37
22241;BME280;11289;52.524;13.694;2023-05-20T14:22:16;101650.66;;;23.40;43.56
22241;BME280;11289;52.524;13.694;2023-05-20T14:24:42;101652.00;;;23.05;43.88
22241;BME280;11289;52.524;13.694;2023-05-20T14:27:08;101644.03;;;23.22;44.26
22241;BME280;11289;52.524;13.694;2023-05-20T14:29:36;101662.72;;;23.30;43.73
22241;BME280;11289;52.524;13.694;2023-05-20T14:32:02;101655.47;;;23.33;44.10
22241;BME280;11289;52.524;13.694;2023-05-20T14:34:29;101644.84;;;23.19;43.99
22241;BME280;11289;52.524;13.694;2023-05-20T14:36:55;101643.50;;;23.09;43.77
22241;BME280;11289;52.524;13.694;2023-05-20T14:39:21;101641.94;;;23.11;45.01
22241;BME280;11289;52.524;13.694;2023-05-20T14:41:47;101635.59;;;23.25;43.94
22241;BME280;11289;52.524;13.694;2023-05-20T14:44:13;101636.38;;;23.26;43.78
22241;BME280;11289;52.524;13.694;2023-05-20T14:46:39;101637.19;;;23.23;43.44
22241;BME280;11289;52.524;13.694;2023-05-20T14:49:05;101631.47;;;23.19;43.36
22241;BME280;11289;52.524;13.694;2023-05-20T14:51:31;101635.50;;;23.15;43.46
22241;BME280;11289;52.524;13.694;2023-05-20T14:53:57;101630.94;;;23.03;44.08
22241;BME280;11289;52.524;13.694;2023-05-20T14:56:23;101620.44;;;23.07;43.89
22241;BME280;11289;52.524;13.694;2023-05-20T14:58:49;101618.19;;;23.27;43.47
22241;BME280;11289;52.524;13.694;2023-05-20T15:01:15;101633.59;;;23.33;42.97
22241;BME280;11289;52.524;13.694;2023-05-20T15:03:42;101631.13;;;23.24;43.07
22241;BME280;11289;52.524;13.694;2023-05-20T15:06:08;101632.34;;;23.27;43.52
22241;BME280;11289;52.524;13.694;2023-05-20T15:08:34;101619.78;;;23.21;43.74
22241;BME280;11289;52.524;13.694;2023-05-20T15:11:00;101621.91;;;23.38;43.78
22241;BME280;11289;52.524;13.694;2023-05-20T15:13:26;101614.16;;;23.28;43.66
22241;BME280;11289;52.524;13.694;2023-05-20T15:15:52;101618.94;;;23.20;43.47
22241;BME280;11289;52.524;13.694;2023-05-20T15:18:18;101614.91;;;23.21;44.00
22241;BME280;11289;52.524;13.694;2023-05-20T15:20:44;101611.69;;;23.23;44.17
22241;BME280;11289;52.524;13.694;2023-05-20T15:23:10;101603.81;;;22.98;44.36
22241;BME280;11289;52.524;13.694;2023-05-20T15:25:36;101603.00;;;23.01;44.48
22241;BME280;11289;52.524;13.694;2023-05-20T15:28:02;101598.50;;;22.93;44.43
22241;BME280;11289;52.524;13.694;2023-05-20T15:30:28;101595.66;;;22.93;44.50
22241;BME280;11289;52.524;13.694;2023-05-20T15:32:54;101603.81;;;22.98;44.42
22241;BME280;11289;52.524;13.694;2023-05-20T15:35:20;101588.47;;;23.03;44.79
22241;BME280;11289;52.524;13.694;2023-05-20T15:37:46;101592.94;;;23.07;44.85
22241;BME280;11289;52.524;13.694;2023-05-20T15:40:12;101581.16;;;22.98;44.35
22241;BME280;11289;52.524;13.694;2023-05-20T15:42:38;101583.09;;;22.87;45.06
22241;BME280;11289;52.524;13.694;2023-05-20T15:45:04;101591.97;;;22.82;45.50
22241;BME280;11289;52.524;13.694;2023-05-20T15:47:31;101589.94;;;22.86;44.95
22241;BME280;11289;52.524;13.694;2023-05-20T15:49:57;101597.50;;;22.71;44.96
22241;BME280;11289;52.524;13.694;2023-05-20T15:52:24;101585.31;;;22.63;45.45
22241;BME280;11289;52.524;13.694;2023-05-20T15:54:50;101579.66;;;22.63;45.65
22241;BME280;11289;52.524;13.694;2023-05-20T15:57:16;101570.66;;;22.47;45.61
22241;BME280;11289;52.524;13.694;2023-05-20T15:59:42;101568.97;;;22.42;45.83
22241;BME280;11289;52.524;13.694;2023-05-20T16:02:08;101573.09;;;22.52;46.17
22241;BME280;11289;52.524;13.694;2023-05-20T16:04:34;101558.94;;;22.52;45.29
22241;BME280;11289;52.524;13.694;2023-05-20T16:07:00;101556.06;;;22.45;45.09
22241;BME280;11289;52.524;13.694;2023-05-20T16:09:26;101557.22;;;22.40;45.69
22241;BME280;11289;52.524;13.694;2023-05-20T16:11:52;101549.13;;;22.38;45.43
22241;BME280;11289;52.524;13.694;2023-05-20T16:14:18;101556.06;;;22.45;45.58
22241;BME280;11289;52.524;13.694;2023-05-20T16:16:44;101549.22;;;22.46;45.98
22241;BME280;11289;52.524;13.694;2023-05-20T16:19:10;101553.69;;;22.50;45.80
22241;BME280;11289;52.524;13.694;2023-05-20T16:21:36;101550.41;;;22.45;45.82
22241;BME280;11289;52.524;13.694;2023-05-20T16:24:02;101547.09;;;22.35;46.03
22241;BME280;11289;52.524;13.694;2023-05-20T16:26:28;101533.38;;;22.37;45.99
22241;BME280;11289;52.524;13.694;2023-05-20T16:28:56;101533.41;;;22.41;45.96
22241;BME280;11289;52.524;13.694;2023-05-20T16:31:22;101527.28;;;22.35;45.89
22241;BME280;11289;52.524;13.694;2023-05-20T16:33:48;101532.41;;;22.26;45.93
22241;BME280;11289;52.524;13.694;2023-05-20T16:36:14;101530.75;;;22.18;46.13
22241;BME280;11289;52.524;13.694;2023-05-20T16:38:40;101523.53;;;22.24;46.32
22241;BME280;11289;52.524;13.694;2023-05-20T16:41:06;101519.06;;;22.23;46.76
22241;BME280;11289;52.524;13.694;2023-05-20T16:43:32;101525.09;;;22.18;46.03
22241;BME280;11289;52.524;13.694;2023-05-20T16:45:58;101509.09;;;21.95;46.18
22241;BME280;11289;52.524;13.694;2023-05-20T16:48:24;101514.44;;;22.04;46.46
22241;BME280;11289;52.524;13.694;2023-05-20T16:50:52;101505.50;;;21.98;46.73
22241;BME280;11289;52.524;13.694;2023-05-20T16:53:19;101518.44;;;21.99;46.63
22241;BME280;11289;52.524;13.694;2023-05-20T16:55:45;101499.28;;;21.82;46.77
22241;BME280;11289;52.524;13.694;2023-05-20T16:58:11;101516.78;;;21.95;46.82
22241;BME280;11289;52.524;13.694;2023-05-20T17:00:38;101507.84;;;21.89;46.57
22241;BME280;11289;52.524;13.694;2023-05-20T17:03:04;101512.63;;;21.85;46.65
22241;BME280;11289;52.524;13.694;2023-05-20T17:05:30;101513.09;;;21.90;46.59
22241;BME280;11289;52.524;13.694;2023-05-20T17:07:56;101514.19;;;21.82;46.76
22241;BME280;11289;52.524;13.694;2023-05-20T17:10:24;101497.91;;;21.68;47.24
22241;BME280;11289;52.524;13.694;2023-05-20T17:12:50;101513.00;;;21.83;47.33
22241;BME280;11289;52.524;13.694;2023-05-20T17:15:16;101512.13;;;21.76;47.35
22241;BME280;11289;52.524;13.694;2023-05-20T17:17:42;101515.19;;;21.63;47.62
22241;BME280;11289;52.524;13.694;2023-05-20T17:20:08;101509.22;;;21.68;47.78
22241;BME280;11289;52.524;13.694;2023-05-20T17:22:35;101505.78;;;21.52;48.38
22241;BME280;11289;52.524;13.694;2023-05-20T17:25:01;101504.09;;;21.47;49.28
22241;BME280;11289;52.524;13.694;2023-05-20T17:27:26;101502.34;;;21.35;48.65
22241;BME280;11289;52.524;13.694;2023-05-20T17:29:54;101503.09;;;21.32;48.88
22241;BME280;11289;52.524;13.694;2023-05-20T17:32:20;101497.41;;;21.29;48.94
22241;BME280;11289;52.524;13.694;2023-05-20T17:34:46;101492.38;;;21.15;49.17
22241;BME280;11289;52.524;13.694;2023-05-20T17:37:12;101501.34;;;21.20;49.47
22241;BME280;11289;52.524;13.694;2023-05-20T17:39:40;101495.59;;;21.13;49.49
22241;BME280;11289;52.524;13.694;2023-05-20T17:42:07;101489.03;;;21.05;49.43
22241;BME280;11289;52.524;13.694;2023-05-20T17:44:33;101497.06;;;21.03;49.88
22241;BME280;11289;52.524;13.694;2023-05-20T17:46:59;101492.19;;;21.00;50.01
22241;BME280;11289;52.524;13.694;2023-05-20T17:49:25;101491.63;;;20.91;50.36
22241;BME280;11289;52.524;13.694;2023-05-20T17:51:51;101485.19;;;20.91;50.60
22241;BME280;11289;52.524;13.694;2023-05-20T17:54:17;101480.59;;;20.79;50.93
22241;BME280;11289;52.524;13.694;2023-05-20T17:56:43;101492.63;;;20.76;51.55
22241;BME280;11289;52.524;13.694;2023-05-20T17:59:12;101486.94;;;20.72;51.45
22241;BME280;11289;52.524;13.694;2023-05-20T18:01:38;101493.81;;;20.75;51.51
22241;BME280;11289;52.524;13.694;2023-05-20T18:04:04;101476.78;;;20.67;51.58
22241;BME280;11289;52.524;13.694;2023-05-20T18:06:31;101491.78;;;20.72;51.69
22241;BME280;11289;52.524;13.694;2023-05-20T18:09:00;101489.19;;;20.63;51.83
22241;BME280;11289;52.524;13.694;2023-05-20T18:11:27;101492.09;;;20.66;52.25
22241;BME280;11289;52.524;13.694;2023-05-20T18:13:53;101474.09;;;20.51;52.40
22241;BME280;11289;52.524;13.694;2023-05-20T18:16:24;101484.00;;;20.42;52.97
22241;BME280;11289;52.524;13.694;2023-05-20T18:18:52;101470.88;;;20.26;53.02
22241;BME280;11289;52.524;13.694;2023-05-20T18:21:19;101489.72;;;20.45;53.01
22241;BME280;11289;52.524;13.694;2023-05-20T18:23:45;101505.75;;;20.41;53.31
22241;BME280;11289;52.524;13.694;2023-05-20T18:26:11;101500.75;;;20.31;53.43
22241;BME280;11289;52.524;13.694;2023-05-20T18:28:37;101508.97;;;20.40;53.45
22241;BME280;11289;52.524;13.694;2023-05-20T18:31:03;101467.81;;;20.12;53.44
22241;BME280;11289;52.524;13.694;2023-05-20T18:33:29;101473.56;;;20.19;53.65
22241;BME280;11289;52.524;13.694;2023-05-20T18:35:56;101503.63;;;20.34;54.03
22241;BME280;11289;52.524;13.694;2023-05-20T18:38:23;101493.84;;;20.28;53.84
22241;BME280;11289;52.524;13.694;2023-05-20T18:40:50;101491.25;;;20.16;54.11
22241;BME280;11289;52.524;13.694;2023-05-20T18:43:16;101500.22;;;20.22;54.16
22241;BME280;11289;52.524;13.694;2023-05-20T18:45:42;101497.31;;;20.18;54.43
22241;BME280;11289;52.524;13.694;2023-05-20T18:48:08;101506.22;;;20.20;54.39
22241;BME280;11289;52.524;13.694;2023-05-20T18:50:34;101510.59;;;20.17;54.46
22241;BME280;11289;52.524;13.694;2023-05-20T18:53:01;101488.53;;;20.00;54.64
22241;BME280;11289;52.524;13.694;2023-05-20T18:55:27;101505.22;;;20.09;54.82
22241;BME280;11289;52.524;13.694;2023-05-20T18:57:54;101512.31;;;20.03;54.88
22241;BME280;11289;52.524;13.694;2023-05-20T19:00:20;101498.00;;;19.88;55.31
22241;BME280;11289;52.524;13.694;2023-05-20T19:02:47;101515.47;;;19.97;55.22
22241;BME280;11289;52.524;13.694;2023-05-20T19:05:13;101500.69;;;19.81;55.89
22241;BME280;11289;52.524;13.694;2023-05-20T19:07:39;101518.91;;;19.87;55.90
22241;BME280;11289;52.524;13.694;2023-05-20T19:10:06;101523.66;;;19.83;55.95
22241;BME280;11289;52.524;13.694;2023-05-20T19:12:32;101514.44;;;19.66;56.20
22241;BME280;11289;52.524;13.694;2023-05-20T19:14:59;101513.78;;;19.54;56.24
22241;BME280;11289;52.524;13.694;2023-05-20T19:17:26;101522.00;;;19.62;56.50